Map

Track Data

SID SEASON NUMBER BASIN SUBBASIN NAME ISO_TIME NATURE LAT LON WMO_WIND WMO_PRES WMO_AGENCY TRACK_TYPE DIST2LAND LANDFALL IFLAG USA_AGENCY USA_ATCF_ID USA_LAT USA_LON USA_RECORD USA_STATUS USA_WIND USA_PRES USA_SSHS USA_R34_NE USA_R34_SE USA_R34_SW USA_R34_NW USA_R50_NE USA_R50_SE USA_R50_SW USA_R50_NW USA_R64_NE USA_R64_SE USA_R64_SW USA_R64_NW USA_POCI USA_ROCI USA_RMW USA_EYE TOKYO_LAT TOKYO_LON TOKYO_GRADE TOKYO_WIND TOKYO_PRES TOKYO_R50_DIR TOKYO_R50_LONG TOKYO_R50_SHORT TOKYO_R30_DIR TOKYO_R30_LONG TOKYO_R30_SHORT TOKYO_LAND CMA_LAT CMA_LON CMA_CAT CMA_WIND CMA_PRES HKO_LAT HKO_LON HKO_CAT HKO_WIND HKO_PRES NEWDELHI_LAT NEWDELHI_LON NEWDELHI_GRADE NEWDELHI_WIND NEWDELHI_PRES NEWDELHI_CI NEWDELHI_DP NEWDELHI_POCI REUNION_LAT REUNION_LON REUNION_TYPE REUNION_WIND REUNION_PRES REUNION_TNUM REUNION_CI REUNION_RMW REUNION_R34_NE REUNION_R34_SE REUNION_R34_SW REUNION_R34_NW REUNION_R50_NE REUNION_R50_SE REUNION_R50_SW REUNION_R50_NW REUNION_R64_NE REUNION_R64_SE REUNION_R64_SW REUNION_R64_NW BOM_LAT BOM_LON BOM_TYPE BOM_WIND BOM_PRES BOM_TNUM BOM_CI BOM_RMW BOM_R34_NE BOM_R34_SE BOM_R34_SW BOM_R34_NW BOM_R50_NE BOM_R50_SE BOM_R50_SW BOM_R50_NW BOM_R64_NE BOM_R64_SE BOM_R64_SW BOM_R64_NW BOM_ROCI BOM_POCI BOM_EYE BOM_POS_METHOD BOM_PRES_METHOD NADI_LAT NADI_LON NADI_CAT NADI_WIND NADI_PRES WELLINGTON_LAT WELLINGTON_LON WELLINGTON_WIND WELLINGTON_PRES DS824_LAT DS824_LON DS824_STAGE DS824_WIND DS824_PRES TD9636_LAT TD9636_LON TD9636_STAGE TD9636_WIND TD9636_PRES TD9635_LAT TD9635_LON TD9635_WIND TD9635_PRES TD9635_ROCI NEUMANN_LAT NEUMANN_LON NEUMANN_CLASS NEUMANN_WIND NEUMANN_PRES MLC_LAT MLC_LON MLC_CLASS MLC_WIND MLC_PRES USA_GUST BOM_GUST BOM_GUST_PER REUNION_GUST REUNION_GUST_PER USA_SEAHGT USA_SEARAD_NE USA_SEARAD_SE USA_SEARAD_SW USA_SEARAD_NW STORM_SPEED STORM_DIR
1918261N14148 1918 60 WP MM NOT_NAMED 1918-09-18 10:00:00 NR 13.5000 147.500 main 1747 1747 __________O___ -1 13.5000 147.500 3 12 285
1918261N14148 1918 60 WP MM NOT_NAMED 1918-09-18 12:00:00 NR 13.6066 147.091 main 1758 1758 __________P___ -1 13.6066 147.091 3 12 285
1918261N14148 1918 60 WP MM NOT_NAMED 1918-09-18 15:00:00 NR 13.7634 146.493 main 1781 1781 __________P___ -1 13.7634 146.493 3 12 285
1918261N14148 1918 60 WP MM NOT_NAMED 1918-09-18 18:00:00 NR 13.9138 145.935 main 1794 1794 __________P___ -1 13.9138 145.935 3 11 286
1918261N14148 1918 60 WP MM NOT_NAMED 1918-09-18 21:00:00 NR 14.0553 145.444 main 1819 1819 __________P___ -1 14.0553 145.444 3 10 287
1918261N14148 1918 60 WP MM NOT_NAMED 1918-09-18 22:00:00 NR 14.1000 145.300 main 1820 1820 __________O___ -1 14.1000 145.300 4 8 289
1918261N14148 1918 60 WP MM NOT_NAMED 1918-09-19 00:00:00 NR 14.1858 145.042 main 1834 1834 __________P___ -1 14.1858 145.042 4 7 290
1918261N14148 1918 60 WP MM NOT_NAMED 1918-09-19 03:00:00 NR 14.3086 144.713 main 1849 1849 __________P___ -1 14.3086 144.713 4 7 292
1918261N14148 1918 60 WP MM NOT_NAMED 1918-09-19 06:00:00 NR 14.4299 144.416 main 1864 1864 __________P___ -1 14.4299 144.416 4 6 293
1918261N14148 1918 60 WP MM NOT_NAMED 1918-09-19 09:00:00 NR 14.5559 144.111 main 1891 1891 __________P___ -1 14.5559 144.111 4 7 293
1918261N14148 1918 60 WP MM NOT_NAMED 1918-09-19 10:00:00 NR 14.6000 144.000 main 1892 1892 __________O___ -1 14.6000 144.000 4 8 291
1918261N14148 1918 60 WP MM NOT_NAMED 1918-09-19 12:00:00 NR 14.6917 143.739 main 1909 1909 __________P___ -1 14.6917 143.739 4 8 290
1918261N14148 1918 60 WP MM NOT_NAMED 1918-09-19 15:00:00 NR 14.8354 143.323 main 1921 1906 __________P___ -1 14.8354 143.323 4 9 290
1918261N14148 1918 60 WP MM NOT_NAMED 1918-09-19 18:00:00 NR 14.9866 142.888 main 1906 1855 __________P___ -1 14.9866 142.888 4 9 290
1918261N14148 1918 60 WP MM NOT_NAMED 1918-09-19 21:00:00 NR 15.1454 142.447 main 1855 1846 __________P___ -1 15.1454 142.447 4 9 291
1918261N14148 1918 60 WP MM NOT_NAMED 1918-09-19 22:00:00 NR 15.2000 142.300 main 1846 1815 __________O___ -1 15.2000 142.300 7 9 291
1918261N14148 1918 60 WP MM NOT_NAMED 1918-09-20 00:00:00 NR 15.3081 142.019 main 1815 1777 __________P___ -1 15.3081 142.019 7 9 292
1918261N14148 1918 60 WP MM NOT_NAMED 1918-09-20 03:00:00 NR 15.4767 141.598 main 1777 1737 __________P___ -1 15.4767 141.598 7 9 293
1918261N14148 1918 60 WP MM NOT_NAMED 1918-09-20 06:00:00 NR 15.6530 141.174 main 1739 1689 __________P___ -1 15.6530 141.174 7 9 294
1918261N14148 1918 60 WP MM NOT_NAMED 1918-09-20 09:00:00 NR 15.8370 140.745 main 1689 1680 __________P___ -1 15.8370 140.745 7 9 294
1918261N14148 1918 60 WP MM NOT_NAMED 1918-09-20 10:00:00 NR 15.9000 140.600 main 1680 1652 __________O___ -1 15.9000 140.600 7 9 294
1918261N14148 1918 60 WP MM NOT_NAMED 1918-09-20 12:00:00 NR 16.0249 140.300 main 1652 1605 __________P___ -1 16.0249 140.300 7 10 294
1918261N14148 1918 60 WP MM NOT_NAMED 1918-09-20 15:00:00 NR 16.2186 139.845 main 1605 1569 __________P___ -1 16.2186 139.845 7 10 294
1918261N14148 1918 60 WP MM NOT_NAMED 1918-09-20 18:00:00 NR 16.4199 139.389 main 1569 1525 __________P___ -1 16.4199 139.389 7 10 295
1918261N14148 1918 60 WP MM NOT_NAMED 1918-09-20 21:00:00 NR 16.6287 138.944 main 1525 1518 __________P___ -1 16.6287 138.944 7 9 296
1918261N14148 1918 60 WP MM NOT_NAMED 1918-09-20 22:00:00 NR 16.7000 138.800 main 1518 1491 __________O___ -1 16.7000 138.800 7 9 298
1918261N14148 1918 60 WP MM NOT_NAMED 1918-09-21 00:00:00 NR 16.8414 138.522 main 1491 1458 __________P___ -1 16.8414 138.522 7 9 299
1918261N14148 1918 60 WP MM NOT_NAMED 1918-09-21 03:00:00 NR 17.0599 138.117 main 1462 1430 __________P___ -1 17.0599 138.117 7 9 300
1918261N14148 1918 60 WP MM NOT_NAMED 1918-09-21 06:00:00 NR 17.2862 137.722 main 1430 1400 __________P___ -1 17.2862 137.722 7 9 302
1918261N14148 1918 60 WP MM NOT_NAMED 1918-09-21 09:00:00 NR 17.5203 137.331 main 1400 1394 __________P___ -1 17.5203 137.331 7 9 302
1918261N14148 1918 60 WP MM NOT_NAMED 1918-09-21 10:00:00 NR 17.6000 137.200 main 1394 1375 __________O___ -1 17.6000 137.200 7 9 302
1918261N14148 1918 60 WP MM NOT_NAMED 1918-09-21 12:00:00 NR 17.7502 136.938 main 1375 1347 __________P___ -1 17.7502 136.938 7 9 302
1918261N14148 1918 60 WP MM NOT_NAMED 1918-09-21 15:00:00 NR 17.9818 136.546 main 1347 1320 __________P___ -1 17.9818 136.546 7 9 302
1918261N14148 1918 60 WP MM NOT_NAMED 1918-09-21 18:00:00 NR 18.2292 136.148 main 1320 1301 __________P___ -1 18.2292 136.148 7 9 304
1918261N14148 1918 60 WP MM NOT_NAMED 1918-09-21 21:00:00 NR 18.5019 135.740 main 1301 1297 __________P___ -1 18.5019 135.740 7 10 305
1918261N14148 1918 60 WP MM NOT_NAMED 1918-09-21 22:00:00 NR 18.6000 135.600 main 1297 1283 __________O___ -1 18.6000 135.600 7 10 306
1918261N14148 1918 60 WP MM NOT_NAMED 1918-09-22 00:00:00 NR 18.7972 135.314 main 1283 1261 __________P___ -1 18.7972 135.314 7 10 307
1918261N14148 1918 60 WP MM NOT_NAMED 1918-09-22 03:00:00 NR 19.1181 134.872 main 1261 1235 __________P___ -1 19.1181 134.872 7 11 309
1918261N14148 1918 60 WP MM NOT_NAMED 1918-09-22 06:00:00 NR 19.4718 134.418 main 1235 1216 __________P___ -1 19.4718 134.418 7 11 311
1918261N14148 1918 60 WP MM NOT_NAMED 1918-09-22 09:00:00 NR 19.8615 133.955 main 1221 1210 __________P___ -1 19.8615 133.955 7 12 312
1918261N14148 1918 60 WP MM NOT_NAMED 1918-09-22 10:00:00 NR 20.0000 133.800 main 1210 1192 __________O___ -1 20.0000 133.800 7 13 312
1918261N14148 1918 60 WP MM NOT_NAMED 1918-09-22 12:00:00 NR 20.2779 133.458 main 1193 1139 __________P___ -1 20.2779 133.458 7 13 312
1918261N14148 1918 60 WP MM NOT_NAMED 1918-09-22 15:00:00 NR 20.7261 132.938 main 1139 1101 __________P___ -1 20.7261 132.938 7 13 314
1918261N14148 1918 60 WP MM NOT_NAMED 1918-09-22 18:00:00 NR 21.2086 132.445 main 1101 1046 __________P___ -1 21.2086 132.445 7 13 319
1918261N14148 1918 60 WP MM NOT_NAMED 1918-09-22 21:00:00 NR 21.7223 132.020 main 1046 1023 __________P___ -1 21.7223 132.020 7 13 324
1918261N14148 1918 60 WP MM NOT_NAMED 1918-09-22 22:00:00 NR 21.9000 131.900 main 1023 976 __________O___ -1 21.9000 131.900 3 12 331
1918261N14148 1918 60 WP MM NOT_NAMED 1918-09-23 00:00:00 NR 22.2626 131.688 main 976 918 __________P___ -1 22.2626 131.688 3 12 336
1918261N14148 1918 60 WP MM NOT_NAMED 1918-09-23 03:00:00 NR 22.8322 131.446 main 918 850 __________P___ -1 22.8322 131.446 3 12 342
1918261N14148 1918 60 WP MM NOT_NAMED 1918-09-23 06:00:00 NR 23.4189 131.289 main 850 783 __________P___ -1 23.4189 131.289 3 12 350
1918261N14148 1918 60 WP MM NOT_NAMED 1918-09-23 09:00:00 NR 24.0066 131.210 main 783 760 __________P___ -1 24.0066 131.210 3 12 354
1918261N14148 1918 60 WP MM NOT_NAMED 1918-09-23 10:00:00 NR 24.2000 131.200 main 760 716 __________O___ -1 24.2000 131.200 4 12 0
1918261N14148 1918 60 WP MM NOT_NAMED 1918-09-23 12:00:00 NR 24.5805 131.202 main 716 660 __________P___ -1 24.5805 131.202 4 11 3
1918261N14148 1918 60 WP MM NOT_NAMED 1918-09-23 15:00:00 NR 25.1376 131.252 main 661 594 __________P___ -1 25.1376 131.252 4 11 6
1918261N14148 1918 60 WP MM NOT_NAMED 1918-09-23 18:00:00 NR 25.6828 131.343 main 594 540 __________P___ -1 25.6828 131.343 4 11 10
1918261N14148 1918 60 WP MM NOT_NAMED 1918-09-23 21:00:00 NR 26.2212 131.459 main 541 519 __________P___ -1 26.2212 131.459 4 11 11
1918261N14148 1918 60 WP MM NOT_NAMED 1918-09-23 22:00:00 NR 26.4000 131.500 main 519 __________O___ -1 26.4000 131.500 4 11 10

Digital Typhoon Data and Search

About IBTrACS Database

This database is a web-friendly format of International Best Track Archive for Climate Stewardship (IBTrACS), a global best track data archive curated by NOAA dating back to 1842.

Updated: 2021-10-08